sensor_id;sensor_type;location;lat;lon;timestamp;P1;durP1;ratioP1;P2;durP2;ratioP2
44078;SDS011;29744;49.078;12.878;2023-06-22T00:03:13;2.95;;;1.60;;
44078;SDS011;29744;49.078;12.878;2023-06-22T00:08:14;3.50;;;1.90;;
44078;SDS011;29744;49.078;12.878;2023-06-22T00:13:14;3.88;;;1.70;;
44078;SDS011;29744;49.078;12.878;2023-06-22T00:18:15;3.53;;;1.70;;
44078;SDS011;29744;49.078;12.878;2023-06-22T00:23:16;4.10;;;1.97;;
44078;SDS011;29744;49.078;12.878;2023-06-22T00:28:17;2.92;;;1.65;;
44078;SDS011;29744;49.078;12.878;2023-06-22T00:33:18;3.13;;;1.70;;
44078;SDS011;29744;49.078;12.878;2023-06-22T00:38:18;3.83;;;1.63;;
44078;SDS011;29744;49.078;12.878;2023-06-22T00:43:18;3.10;;;1.60;;
44078;SDS011;29744;49.078;12.878;2023-06-22T00:48:19;3.72;;;1.98;;
44078;SDS011;29744;49.078;12.878;2023-06-22T00:53:19;3.38;;;1.50;;
44078;SDS011;29744;49.078;12.878;2023-06-22T00:58:20;3.10;;;1.75;;
44078;SDS011;29744;49.078;12.878;2023-06-22T01:03:25;2.88;;;1.60;;
44078;SDS011;29744;49.078;12.878;2023-06-22T01:08:29;2.85;;;1.60;;
44078;SDS011;29744;49.078;12.878;2023-06-22T01:13:45;3.05;;;1.50;;
44078;SDS011;29744;49.078;12.878;2023-06-22T01:18:47;3.88;;;1.70;;
44078;SDS011;29744;49.078;12.878;2023-06-22T01:24:01;3.35;;;1.67;;
44078;SDS011;29744;49.078;12.878;2023-06-22T01:29:02;3.47;;;1.67;;
44078;SDS011;29744;49.078;12.878;2023-06-22T01:34:05;3.10;;;1.80;;
44078;SDS011;29744;49.078;12.878;2023-06-22T01:39:06;3.40;;;1.80;;
44078;SDS011;29744;49.078;12.878;2023-06-22T01:44:07;2.95;;;1.65;;
44078;SDS011;29744;49.078;12.878;2023-06-22T01:49:09;2.50;;;1.58;;
44078;SDS011;29744;49.078;12.878;2023-06-22T01:54:10;3.03;;;1.60;;
44078;SDS011;29744;49.078;12.878;2023-06-22T01:59:30;2.83;;;1.42;;
44078;SDS011;29744;49.078;12.878;2023-06-22T02:04:36;3.20;;;1.60;;
44078;SDS011;29744;49.078;12.878;2023-06-22T02:09:48;3.17;;;1.60;;
44078;SDS011;29744;49.078;12.878;2023-06-22T02:14:51;3.00;;;1.67;;
44078;SDS011;29744;49.078;12.878;2023-06-22T02:19:52;3.58;;;1.60;;
44078;SDS011;29744;49.078;12.878;2023-06-22T02:24:52;2.60;;;1.40;;
44078;SDS011;29744;49.078;12.878;2023-06-22T02:29:53;2.75;;;1.50;;
44078;SDS011;29744;49.078;12.878;2023-06-22T02:34:53;3.70;;;1.90;;
44078;SDS011;29744;49.078;12.878;2023-06-22T02:39:53;3.63;;;1.80;;
44078;SDS011;29744;49.078;12.878;2023-06-22T02:44:53;3.10;;;1.60;;
44078;SDS011;29744;49.078;12.878;2023-06-22T02:49:54;3.10;;;1.80;;
44078;SDS011;29744;49.078;12.878;2023-06-22T02:54:54;2.88;;;1.73;;
44078;SDS011;29744;49.078;12.878;2023-06-22T02:59:54;2.80;;;1.60;;
44078;SDS011;29744;49.078;12.878;2023-06-22T03:04:55;2.58;;;1.50;;
44078;SDS011;29744;49.078;12.878;2023-06-22T03:09:55;2.83;;;1.60;;
44078;SDS011;29744;49.078;12.878;2023-06-22T03:14:55;3.33;;;1.63;;
44078;SDS011;29744;49.078;12.878;2023-06-22T03:19:56;3.20;;;1.73;;
44078;SDS011;29744;49.078;12.878;2023-06-22T03:24:56;3.80;;;1.70;;
44078;SDS011;29744;49.078;12.878;2023-06-22T03:29:57;3.25;;;1.60;;
44078;SDS011;29744;49.078;12.878;2023-06-22T03:34:57;2.30;;;1.45;;
44078;SDS011;29744;49.078;12.878;2023-06-22T03:39:58;2.80;;;1.60;;
44078;SDS011;29744;49.078;12.878;2023-06-22T03:44:59;3.15;;;1.83;;
44078;SDS011;29744;49.078;12.878;2023-06-22T03:50:01;2.78;;;1.45;;
44078;SDS011;29744;49.078;12.878;2023-06-22T03:55:03;3.03;;;1.70;;
44078;SDS011;29744;49.078;12.878;2023-06-22T04:00:05;2.92;;;1.63;;
44078;SDS011;29744;49.078;12.878;2023-06-22T04:05:07;2.53;;;1.40;;
44078;SDS011;29744;49.078;12.878;2023-06-22T04:10:08;2.95;;;1.40;;
44078;SDS011;29744;49.078;12.878;2023-06-22T04:15:09;2.90;;;1.60;;
44078;SDS011;29744;49.078;12.878;2023-06-22T04:20:10;2.20;;;1.42;;
44078;SDS011;29744;49.078;12.878;2023-06-22T04:25:10;3.03;;;1.73;;
44078;SDS011;29744;49.078;12.878;2023-06-22T04:30:13;2.38;;;1.45;;
44078;SDS011;29744;49.078;12.878;2023-06-22T04:35:16;2.45;;;1.45;;
44078;SDS011;29744;49.078;12.878;2023-06-22T04:40:16;3.35;;;1.48;;
44078;SDS011;29744;49.078;12.878;2023-06-22T04:45:17;2.63;;;1.50;;
44078;SDS011;29744;49.078;12.878;2023-06-22T04:50:17;2.92;;;1.50;;
44078;SDS011;29744;49.078;12.878;2023-06-22T04:55:21;2.83;;;1.65;;
44078;SDS011;29744;49.078;12.878;2023-06-22T05:00:21;2.80;;;1.50;;
44078;SDS011;29744;49.078;12.878;2023-06-22T05:05:23;2.55;;;1.40;;
44078;SDS011;29744;49.078;12.878;2023-06-22T05:10:24;2.80;;;1.67;;
44078;SDS011;29744;49.078;12.878;2023-06-22T05:15:24;3.05;;;1.83;;
44078;SDS011;29744;49.078;12.878;2023-06-22T05:20:28;2.45;;;1.38;;
44078;SDS011;29744;49.078;12.878;2023-06-22T05:25:28;2.97;;;1.50;;
44078;SDS011;29744;49.078;12.878;2023-06-22T05:30:29;2.80;;;1.63;;
44078;SDS011;29744;49.078;12.878;2023-06-22T05:35:30;3.00;;;1.67;;
44078;SDS011;29744;49.078;12.878;2023-06-22T05:40:30;3.60;;;1.80;;
44078;SDS011;29744;49.078;12.878;2023-06-22T05:45:30;3.20;;;1.75;;
44078;SDS011;29744;49.078;12.878;2023-06-22T05:50:31;2.45;;;1.63;;
44078;SDS011;29744;49.078;12.878;2023-06-22T05:55:31;3.58;;;2.10;;
44078;SDS011;29744;49.078;12.878;2023-06-22T06:00:32;3.00;;;1.73;;
44078;SDS011;29744;49.078;12.878;2023-06-22T06:05:33;3.35;;;2.03;;
44078;SDS011;29744;49.078;12.878;2023-06-22T06:10:34;3.85;;;2.05;;
44078;SDS011;29744;49.078;12.878;2023-06-22T06:15:35;3.78;;;1.95;;
44078;SDS011;29744;49.078;12.878;2023-06-22T06:20:35;4.37;;;2.00;;
44078;SDS011;29744;49.078;12.878;2023-06-22T06:25:35;5.30;;;2.00;;
44078;SDS011;29744;49.078;12.878;2023-06-22T06:30:36;3.22;;;1.85;;
44078;SDS011;29744;49.078;12.878;2023-06-22T06:35:37;3.25;;;1.77;;
44078;SDS011;29744;49.078;12.878;2023-06-22T06:40:37;4.35;;;2.05;;
44078;SDS011;29744;49.078;12.878;2023-06-22T06:45:38;2.85;;;1.77;;
44078;SDS011;29744;49.078;12.878;2023-06-22T06:50:38;3.42;;;1.90;;
44078;SDS011;29744;49.078;12.878;2023-06-22T06:55:38;3.92;;;2.10;;
44078;SDS011;29744;49.078;12.878;2023-06-22T07:00:39;4.13;;;2.00;;
44078;SDS011;29744;49.078;12.878;2023-06-22T07:05:39;6.13;;;2.30;;
44078;SDS011;29744;49.078;12.878;2023-06-22T07:10:39;3.15;;;1.80;;
44078;SDS011;29744;49.078;12.878;2023-06-22T07:15:40;3.80;;;1.80;;
44078;SDS011;29744;49.078;12.878;2023-06-22T07:20:40;3.40;;;1.80;;
44078;SDS011;29744;49.078;12.878;2023-06-22T07:25:41;2.78;;;1.67;;
44078;SDS011;29744;49.078;12.878;2023-06-22T07:30:41;3.72;;;1.80;;
44078;SDS011;29744;49.078;12.878;2023-06-22T07:35:41;3.08;;;1.80;;
44078;SDS011;29744;49.078;12.878;2023-06-22T07:40:42;3.78;;;1.80;;
44078;SDS011;29744;49.078;12.878;2023-06-22T07:45:47;3.95;;;1.70;;
44078;SDS011;29744;49.078;12.878;2023-06-22T07:50:54;2.92;;;1.85;;
44078;SDS011;29744;49.078;12.878;2023-06-22T07:55:55;3.00;;;1.80;;
44078;SDS011;29744;49.078;12.878;2023-06-22T08:00:55;3.70;;;2.00;;
44078;SDS011;29744;49.078;12.878;2023-06-22T08:05:55;3.75;;;1.95;;
44078;SDS011;29744;49.078;12.878;2023-06-22T08:10:56;3.38;;;1.80;;
44078;SDS011;29744;49.078;12.878;2023-06-22T08:15:56;2.80;;;1.80;;
44078;SDS011;29744;49.078;12.878;2023-06-22T08:20:56;4.35;;;2.10;;
44078;SDS011;29744;49.078;12.878;2023-06-22T08:25:57;3.78;;;2.35;;
44078;SDS011;29744;49.078;12.878;2023-06-22T08:30:57;3.80;;;1.88;;
44078;SDS011;29744;49.078;12.878;2023-06-22T08:35:58;4.32;;;2.03;;
44078;SDS011;29744;49.078;12.878;2023-06-22T08:40:59;3.78;;;2.10;;
44078;SDS011;29744;49.078;12.878;2023-06-22T08:46:00;4.75;;;2.20;;
44078;SDS011;29744;49.078;12.878;2023-06-22T08:51:00;2.60;;;1.60;;
44078;SDS011;29744;49.078;12.878;2023-06-22T08:56:01;3.08;;;2.00;;
44078;SDS011;29744;49.078;12.878;2023-06-22T09:01:01;3.25;;;1.52;;
44078;SDS011;29744;49.078;12.878;2023-06-22T09:06:02;3.42;;;1.80;;
44078;SDS011;29744;49.078;12.878;2023-06-22T09:11:02;3.33;;;1.70;;
44078;SDS011;29744;49.078;12.878;2023-06-22T09:16:02;3.80;;;1.92;;
44078;SDS011;29744;49.078;12.878;2023-06-22T09:21:03;4.40;;;2.05;;
44078;SDS011;29744;49.078;12.878;2023-06-22T09:26:03;4.25;;;2.20;;
44078;SDS011;29744;49.078;12.878;2023-06-22T09:31:04;3.30;;;2.00;;
44078;SDS011;29744;49.078;12.878;2023-06-22T09:36:07;3.22;;;1.92;;
44078;SDS011;29744;49.078;12.878;2023-06-22T09:41:08;3.05;;;1.75;;
44078;SDS011;29744;49.078;12.878;2023-06-22T09:46:08;3.22;;;1.88;;
44078;SDS011;29744;49.078;12.878;2023-06-22T09:51:09;3.92;;;2.10;;
44078;SDS011;29744;49.078;12.878;2023-06-22T09:56:10;3.78;;;2.20;;
44078;SDS011;29744;49.078;12.878;2023-06-22T10:01:14;4.80;;;2.30;;
44078;SDS011;29744;49.078;12.878;2023-06-22T10:06:15;4.05;;;2.15;;
44078;SDS011;29744;49.078;12.878;2023-06-22T10:11:15;3.85;;;2.10;;
44078;SDS011;29744;49.078;12.878;2023-06-22T10:16:15;3.80;;;2.25;;
44078;SDS011;29744;49.078;12.878;2023-06-22T10:21:15;3.30;;;1.90;;
44078;SDS011;29744;49.078;12.878;2023-06-22T10:26:16;3.28;;;1.98;;
44078;SDS011;29744;49.078;12.878;2023-06-22T10:31:16;3.60;;;2.10;;
44078;SDS011;29744;49.078;12.878;2023-06-22T10:36:16;4.15;;;1.92;;
44078;SDS011;29744;49.078;12.878;2023-06-22T10:41:17;3.38;;;1.88;;
44078;SDS011;29744;49.078;12.878;2023-06-22T10:46:17;4.07;;;2.00;;
44078;SDS011;29744;49.078;12.878;2023-06-22T10:51:17;3.88;;;2.10;;
44078;SDS011;29744;49.078;12.878;2023-06-22T10:56:18;4.10;;;2.00;;
44078;SDS011;29744;49.078;12.878;2023-06-22T11:01:20;3.35;;;2.13;;
44078;SDS011;29744;49.078;12.878;2023-06-22T11:06:20;3.75;;;2.17;;
44078;SDS011;29744;49.078;12.878;2023-06-22T11:11:21;3.33;;;1.80;;
44078;SDS011;29744;49.078;12.878;2023-06-22T11:16:21;3.85;;;2.20;;
44078;SDS011;29744;49.078;12.878;2023-06-22T11:21:21;4.03;;;2.03;;
44078;SDS011;29744;49.078;12.878;2023-06-22T11:26:21;3.20;;;1.88;;
44078;SDS011;29744;49.078;12.878;2023-06-22T11:31:22;4.00;;;2.00;;
44078;SDS011;29744;49.078;12.878;2023-06-22T11:36:22;4.45;;;1.85;;
44078;SDS011;29744;49.078;12.878;2023-06-22T11:41:22;3.22;;;2.08;;
44078;SDS011;29744;49.078;12.878;2023-06-22T11:46:23;3.40;;;2.08;;
44078;SDS011;29744;49.078;12.878;2023-06-22T11:51:23;4.38;;;2.30;;
44078;SDS011;29744;49.078;12.878;2023-06-22T11:56:23;3.40;;;2.08;;
44078;SDS011;29744;49.078;12.878;2023-06-22T12:01:24;3.50;;;2.20;;
44078;SDS011;29744;49.078;12.878;2023-06-22T12:06:24;3.20;;;2.10;;
44078;SDS011;29744;49.078;12.878;2023-06-22T12:11:24;4.70;;;2.28;;
44078;SDS011;29744;49.078;12.878;2023-06-22T12:16:25;4.93;;;1.97;;
44078;SDS011;29744;49.078;12.878;2023-06-22T12:21:25;4.10;;;2.33;;
44078;SDS011;29744;49.078;12.878;2023-06-22T12:26:25;3.80;;;1.95;;
44078;SDS011;29744;49.078;12.878;2023-06-22T12:31:25;3.60;;;1.85;;
44078;SDS011;29744;49.078;12.878;2023-06-22T12:36:26;4.00;;;2.25;;
44078;SDS011;29744;49.078;12.878;2023-06-22T12:41:26;3.88;;;2.03;;
44078;SDS011;29744;49.078;12.878;2023-06-22T12:46:26;4.88;;;2.20;;
44078;SDS011;29744;49.078;12.878;2023-06-22T12:51:27;5.18;;;2.20;;
44078;SDS011;29744;49.078;12.878;2023-06-22T12:56:27;4.15;;;2.20;;
44078;SDS011;29744;49.078;12.878;2023-06-22T13:01:27;4.30;;;2.22;;
44078;SDS011;29744;49.078;12.878;2023-06-22T13:06:28;3.65;;;2.20;;
44078;SDS011;29744;49.078;12.878;2023-06-22T13:11:28;4.28;;;2.17;;
44078;SDS011;29744;49.078;12.878;2023-06-22T13:16:29;3.53;;;2.00;;
44078;SDS011;29744;49.078;12.878;2023-06-22T13:21:30;4.20;;;2.30;;
44078;SDS011;29744;49.078;12.878;2023-06-22T13:26:30;4.53;;;2.33;;
44078;SDS011;29744;49.078;12.878;2023-06-22T13:31:31;3.60;;;2.10;;
44078;SDS011;29744;49.078;12.878;2023-06-22T13:36:31;6.10;;;2.40;;
44078;SDS011;29744;49.078;12.878;2023-06-22T13:41:32;4.28;;;2.28;;
44078;SDS011;29744;49.078;12.878;2023-06-22T13:46:33;4.80;;;2.30;;
44078;SDS011;29744;49.078;12.878;2023-06-22T13:51:33;4.25;;;2.25;;
44078;SDS011;29744;49.078;12.878;2023-06-22T13:56:33;4.22;;;2.25;;
44078;SDS011;29744;49.078;12.878;2023-06-22T14:01:33;5.05;;;2.55;;
44078;SDS011;29744;49.078;12.878;2023-06-22T14:06:34;4.75;;;2.63;;
44078;SDS011;29744;49.078;12.878;2023-06-22T14:11:34;4.45;;;2.38;;
44078;SDS011;29744;49.078;12.878;2023-06-22T14:16:34;4.40;;;2.33;;
44078;SDS011;29744;49.078;12.878;2023-06-22T14:21:35;4.57;;;2.17;;
44078;SDS011;29744;49.078;12.878;2023-06-22T14:26:35;4.80;;;2.53;;
44078;SDS011;29744;49.078;12.878;2023-06-22T14:31:35;3.92;;;2.22;;
44078;SDS011;29744;49.078;12.878;2023-06-22T14:36:36;4.25;;;2.28;;
44078;SDS011;29744;49.078;12.878;2023-06-22T14:41:36;4.45;;;2.50;;
44078;SDS011;29744;49.078;12.878;2023-06-22T14:46:36;5.00;;;2.38;;
44078;SDS011;29744;49.078;12.878;2023-06-22T14:51:36;4.20;;;2.63;;
44078;SDS011;29744;49.078;12.878;2023-06-22T14:56:37;5.13;;;2.60;;
44078;SDS011;29744;49.078;12.878;2023-06-22T15:01:37;5.07;;;2.72;;
44078;SDS011;29744;49.078;12.878;2023-06-22T15:06:37;6.10;;;2.90;;
44078;SDS011;29744;49.078;12.878;2023-06-22T15:11:37;7.47;;;2.53;;
44078;SDS011;29744;49.078;12.878;2023-06-22T15:16:38;5.47;;;2.50;;
44078;SDS011;29744;49.078;12.878;2023-06-22T15:21:38;6.57;;;2.83;;
44078;SDS011;29744;49.078;12.878;2023-06-22T15:26:38;4.38;;;2.53;;
44078;SDS011;29744;49.078;12.878;2023-06-22T15:31:39;5.03;;;2.80;;
44078;SDS011;29744;49.078;12.878;2023-06-22T15:36:39;4.75;;;2.75;;
44078;SDS011;29744;49.078;12.878;2023-06-22T15:41:40;4.60;;;2.50;;
44078;SDS011;29744;49.078;12.878;2023-06-22T15:46:43;4.97;;;2.53;;
44078;SDS011;29744;49.078;12.878;2023-06-22T15:51:44;5.13;;;2.42;;
44078;SDS011;29744;49.078;12.878;2023-06-22T15:56:44;6.70;;;2.92;;
44078;SDS011;29744;49.078;12.878;2023-06-22T16:01:45;5.18;;;2.65;;
44078;SDS011;29744;49.078;12.878;2023-06-22T16:06:45;5.53;;;2.53;;
44078;SDS011;29744;49.078;12.878;2023-06-22T16:11:45;5.35;;;2.75;;
44078;SDS011;29744;49.078;12.878;2023-06-22T16:16:46;4.70;;;2.60;;
44078;SDS011;29744;49.078;12.878;2023-06-22T16:21:46;4.95;;;2.42;;
44078;SDS011;29744;49.078;12.878;2023-06-22T16:26:46;5.03;;;2.75;;
44078;SDS011;29744;49.078;12.878;2023-06-22T16:31:47;5.30;;;2.63;;
44078;SDS011;29744;49.078;12.878;2023-06-22T16:36:48;6.65;;;3.10;;
44078;SDS011;29744;49.078;12.878;2023-06-22T16:41:48;5.00;;;2.70;;
44078;SDS011;29744;49.078;12.878;2023-06-22T16:46:49;5.95;;;2.90;;
44078;SDS011;29744;49.078;12.878;2023-06-22T16:51:50;5.82;;;3.00;;
44078;SDS011;29744;49.078;12.878;2023-06-22T16:56:50;6.50;;;3.22;;
44078;SDS011;29744;49.078;12.878;2023-06-22T17:01:51;6.00;;;2.92;;
44078;SDS011;29744;49.078;12.878;2023-06-22T17:07:16;5.72;;;3.20;;
44078;SDS011;29744;49.078;12.878;2023-06-22T17:12:17;5.47;;;2.90;;
44078;SDS011;29744;49.078;12.878;2023-06-22T17:17:24;6.07;;;3.15;;
44078;SDS011;29744;49.078;12.878;2023-06-22T17:22:26;7.38;;;3.35;;
44078;SDS011;29744;49.078;12.878;2023-06-22T17:27:35;5.90;;;2.85;;
44078;SDS011;29744;49.078;12.878;2023-06-22T17:32:36;5.40;;;2.95;;
44078;SDS011;29744;49.078;12.878;2023-06-22T17:37:47;6.22;;;3.35;;
44078;SDS011;29744;49.078;12.878;2023-06-22T17:43:01;6.25;;;3.00;;
44078;SDS011;29744;49.078;12.878;2023-06-22T17:48:05;5.80;;;3.05;;
44078;SDS011;29744;49.078;12.878;2023-06-22T17:53:11;4.88;;;3.10;;
44078;SDS011;29744;49.078;12.878;2023-06-22T17:58:12;8.05;;;3.17;;
44078;SDS011;29744;49.078;12.878;2023-06-22T18:03:13;5.70;;;3.30;;
44078;SDS011;29744;49.078;12.878;2023-06-22T18:08:14;6.47;;;3.65;;
44078;SDS011;29744;49.078;12.878;2023-06-22T18:13:24;7.20;;;3.22;;
44078;SDS011;29744;49.078;12.878;2023-06-22T18:18:26;7.30;;;3.72;;
44078;SDS011;29744;49.078;12.878;2023-06-22T18:23:28;7.63;;;4.10;;
44078;SDS011;29744;49.078;12.878;2023-06-22T18:28:35;6.35;;;3.70;;
44078;SDS011;29744;49.078;12.878;2023-06-22T18:33:35;7.75;;;4.18;;
44078;SDS011;29744;49.078;12.878;2023-06-22T18:38:39;7.40;;;3.70;;
44078;SDS011;29744;49.078;12.878;2023-06-22T18:43:41;8.68;;;3.53;;
44078;SDS011;29744;49.078;12.878;2023-06-22T18:48:41;7.47;;;4.05;;
44078;SDS011;29744;49.078;12.878;2023-06-22T18:53:42;7.97;;;3.80;;
44078;SDS011;29744;49.078;12.878;2023-06-22T18:58:42;6.05;;;3.47;;
44078;SDS011;29744;49.078;12.878;2023-06-22T19:03:42;8.02;;;3.72;;
44078;SDS011;29744;49.078;12.878;2023-06-22T19:14:18;8.70;;;4.22;;
44078;SDS011;29744;49.078;12.878;2023-06-22T19:19:20;9.30;;;3.87;;
44078;SDS011;29744;49.078;12.878;2023-06-22T19:24:30;7.72;;;3.92;;
44078;SDS011;29744;49.078;12.878;2023-06-22T19:29:31;7.63;;;3.78;;
44078;SDS011;29744;49.078;12.878;2023-06-22T19:34:34;6.30;;;3.67;;
44078;SDS011;29744;49.078;12.878;2023-06-22T19:39:35;6.32;;;3.50;;
44078;SDS011;29744;49.078;12.878;2023-06-22T19:44:36;6.95;;;4.00;;
44078;SDS011;29744;49.078;12.878;2023-06-22T19:49:36;6.95;;;3.80;;
44078;SDS011;29744;49.078;12.878;2023-06-22T19:54:39;6.40;;;3.90;;
44078;SDS011;29744;49.078;12.878;2023-06-22T19:59:40;5.82;;;3.80;;
44078;SDS011;29744;49.078;12.878;2023-06-22T20:04:41;6.22;;;3.67;;
44078;SDS011;29744;49.078;12.878;2023-06-22T20:09:43;7.28;;;3.88;;
44078;SDS011;29744;49.078;12.878;2023-06-22T20:14:44;6.63;;;3.70;;
44078;SDS011;29744;49.078;12.878;2023-06-22T20:19:44;5.55;;;3.45;;
44078;SDS011;29744;49.078;12.878;2023-06-22T20:24:45;6.22;;;3.58;;
44078;SDS011;29744;49.078;12.878;2023-06-22T20:29:46;5.38;;;3.45;;
44078;SDS011;29744;49.078;12.878;2023-06-22T20:34:46;6.68;;;3.90;;
44078;SDS011;29744;49.078;12.878;2023-06-22T20:39:47;5.97;;;3.22;;
44078;SDS011;29744;49.078;12.878;2023-06-22T20:44:47;6.82;;;3.65;;
44078;SDS011;29744;49.078;12.878;2023-06-22T20:49:49;6.75;;;3.50;;
44078;SDS011;29744;49.078;12.878;2023-06-22T20:54:50;5.60;;;3.40;;
44078;SDS011;29744;49.078;12.878;2023-06-22T20:59:50;6.38;;;3.90;;
44078;SDS011;29744;49.078;12.878;2023-06-22T21:04:51;6.07;;;3.33;;
44078;SDS011;29744;49.078;12.878;2023-06-22T21:09:52;5.10;;;3.10;;
44078;SDS011;29744;49.078;12.878;2023-06-22T21:14:53;5.55;;;3.00;;
44078;SDS011;29744;49.078;12.878;2023-06-22T21:19:53;5.38;;;3.10;;
44078;SDS011;29744;49.078;12.878;2023-06-22T21:25:09;6.07;;;3.40;;
44078;SDS011;29744;49.078;12.878;2023-06-22T21:30:12;5.57;;;3.10;;
44078;SDS011;29744;49.078;12.878;2023-06-22T21:35:15;7.00;;;3.28;;
44078;SDS011;29744;49.078;12.878;2023-06-22T21:40:15;5.43;;;3.05;;
44078;SDS011;29744;49.078;12.878;2023-06-22T21:45:15;5.65;;;3.13;;
44078;SDS011;29744;49.078;12.878;2023-06-22T21:50:16;5.53;;;3.22;;
44078;SDS011;29744;49.078;12.878;2023-06-22T21:55:16;7.03;;;3.10;;
44078;SDS011;29744;49.078;12.878;2023-06-22T22:00:17;6.22;;;3.50;;
44078;SDS011;29744;49.078;12.878;2023-06-22T22:05:17;5.93;;;3.10;;
44078;SDS011;29744;49.078;12.878;2023-06-22T22:10:18;4.57;;;3.00;;
44078;SDS011;29744;49.078;12.878;2023-06-22T22:15:18;5.28;;;3.03;;
44078;SDS011;29744;49.078;12.878;2023-06-22T22:20:19;4.80;;;2.85;;
44078;SDS011;29744;49.078;12.878;2023-06-22T22:25:19;5.55;;;3.13;;
44078;SDS011;29744;49.078;12.878;2023-06-22T22:30:19;6.88;;;3.53;;
44078;SDS011;29744;49.078;12.878;2023-06-22T22:35:20;5.90;;;3.30;;
44078;SDS011;29744;49.078;12.878;2023-06-22T22:40:20;6.13;;;3.45;;
44078;SDS011;29744;49.078;12.878;2023-06-22T22:45:20;6.80;;;3.50;;
44078;SDS011;29744;49.078;12.878;2023-06-22T22:50:21;5.93;;;3.22;;
44078;SDS011;29744;49.078;12.878;2023-06-22T22:55:21;5.43;;;2.97;;
44078;SDS011;29744;49.078;12.878;2023-06-22T23:00:22;4.80;;;2.90;;
44078;SDS011;29744;49.078;12.878;2023-06-22T23:05:22;5.15;;;2.80;;
44078;SDS011;29744;49.078;12.878;2023-06-22T23:10:23;5.93;;;2.92;;
44078;SDS011;29744;49.078;12.878;2023-06-22T23:15:23;6.13;;;2.88;;
44078;SDS011;29744;49.078;12.878;2023-06-22T23:20:23;5.55;;;3.13;;
44078;SDS011;29744;49.078;12.878;2023-06-22T23:25:24;4.47;;;2.72;;
44078;SDS011;29744;49.078;12.878;2023-06-22T23:30:25;5.30;;;2.95;;
44078;SDS011;29744;49.078;12.878;2023-06-22T23:35:26;6.03;;;2.78;;
44078;SDS011;29744;49.078;12.878;2023-06-22T23:40:26;4.78;;;3.08;;
44078;SDS011;29744;49.078;12.878;2023-06-22T23:45:27;4.80;;;2.70;;
44078;SDS011;29744;49.078;12.878;2023-06-22T23:50:27;4.15;;;2.55;;
44078;SDS011;29744;49.078;12.878;2023-06-22T23:55:27;6.13;;;2.78;;
